sensor_id;sensor_type;location;lat;lon;timestamp;pressure;altitude;pressure_sealevel;temperature;humidity
32081;BME280;18593;51.426;7.030;2023-04-07T00:02:10;100346.22;;;9.52;72.84
32081;BME280;18593;51.426;7.030;2023-04-07T00:04:37;100332.72;;;9.54;72.90
32081;BME280;18593;51.426;7.030;2023-04-07T00:07:05;100349.50;;;9.54;72.80
32081;BME280;18593;51.426;7.030;2023-04-07T00:09:32;100342.31;;;9.55;72.74
32081;BME280;18593;51.426;7.030;2023-04-07T00:11:59;100337.81;;;9.55;72.66
32081;BME280;18593;51.426;7.030;2023-04-07T00:14:27;100340.28;;;9.57;72.57
32081;BME280;18593;51.426;7.030;2023-04-07T00:16:54;100339.66;;;9.55;72.87
32081;BME280;18593;51.426;7.030;2023-04-07T00:19:21;100344.81;;;9.57;73.28
32081;BME280;18593;51.426;7.030;2023-04-07T00:21:48;100335.97;;;9.56;73.21
32081;BME280;18593;51.426;7.030;2023-04-07T00:24:16;100338.63;;;9.56;73.12
32081;BME280;18593;51.426;7.030;2023-04-07T00:26:43;100346.63;;;9.56;73.81
32081;BME280;18593;51.426;7.030;2023-04-07T00:29:10;100338.25;;;9.52;74.19
32081;BME280;18593;51.426;7.030;2023-04-07T00:31:37;100337.22;;;9.53;73.72
32081;BME280;18593;51.426;7.030;2023-04-07T00:34:04;100331.91;;;9.53;73.64
32081;BME280;18593;51.426;7.030;2023-04-07T00:36:31;100332.72;;;9.54;73.61
32081;BME280;18593;51.426;7.030;2023-04-07T00:38:58;100337.22;;;9.53;74.85
32081;BME280;18593;51.426;7.030;2023-04-07T00:41:27;100336.59;;;9.51;74.66
32081;BME280;18593;51.426;7.030;2023-04-07T00:43:54;100333.94;;;9.51;74.19
32081;BME280;18593;51.426;7.030;2023-04-07T00:46:21;100326.16;;;9.50;74.47
32081;BME280;18593;51.426;7.030;2023-04-07T00:48:49;100335.19;;;9.49;74.45
32081;BME280;18593;51.426;7.030;2023-04-07T00:51:16;100326.97;;;9.50;74.36
32081;BME280;18593;51.426;7.030;2023-04-07T00:53:43;100323.50;;;9.50;74.14
32081;BME280;18593;51.426;7.030;2023-04-07T00:56:10;100320.84;;;9.50;75.14
32081;BME280;18593;51.426;7.030;2023-04-07T00:58:39;100326.38;;;9.48;75.68
32081;BME280;18593;51.426;7.030;2023-04-07T01:01:08;100312.66;;;9.45;75.56
32081;BME280;18593;51.426;7.030;2023-04-07T01:03:41;100323.09;;;9.46;75.14
32081;BME280;18593;51.426;7.030;2023-04-07T01:06:10;100314.09;;;9.47;75.11
32081;BME280;18593;51.426;7.030;2023-04-07T01:08:48;100316.94;;;9.46;75.22
32081;BME280;18593;51.426;7.030;2023-04-07T01:11:21;100310.63;;;9.47;74.86
32081;BME280;18593;51.426;7.030;2023-04-07T01:13:51;100319.41;;;9.47;75.19
32081;BME280;18593;51.426;7.030;2023-04-07T01:16:30;100313.88;;;9.49;74.96
32081;BME280;18593;51.426;7.030;2023-04-07T01:19:00;100326.38;;;9.48;75.42
32081;BME280;18593;51.426;7.030;2023-04-07T01:21:31;100314.09;;;9.47;75.92
32081;BME280;18593;51.426;7.030;2023-04-07T01:24:11;100314.28;;;9.46;76.28
32081;BME280;18593;51.426;7.030;2023-04-07T01:26:43;100306.72;;;9.43;76.66
32081;BME280;18593;51.426;7.030;2023-04-07T01:29:33;100311.03;;;9.44;76.20
32081;BME280;18593;51.426;7.030;2023-04-07T01:32:04;100313.28;;;9.47;76.46
32081;BME280;18593;51.426;7.030;2023-04-07T01:34:32;100316.75;;;9.47;76.30
32081;BME280;18593;51.426;7.030;2023-04-07T01:37:02;100311.44;;;9.47;76.17
32081;BME280;18593;51.426;7.030;2023-04-07T01:39:29;100314.09;;;9.47;76.45
32081;BME280;18593;51.426;7.030;2023-04-07T01:41:57;100313.28;;;9.47;77.16
32081;BME280;18593;51.426;7.030;2023-04-07T01:44:26;100315.94;;;9.47;76.49
32081;BME280;18593;51.426;7.030;2023-04-07T01:46:56;100315.94;;;9.47;76.75
32081;BME280;18593;51.426;7.030;2023-04-07T01:49:23;100311.22;;;9.49;76.58
32081;BME280;18593;51.426;7.030;2023-04-07T01:51:51;100317.56;;;9.48;76.48
32081;BME280;18593;51.426;7.030;2023-04-07T01:54:19;100310.41;;;9.48;76.10
32081;BME280;18593;51.426;7.030;2023-04-07T01:56:47;100306.50;;;9.51;75.77
32081;BME280;18593;51.426;7.030;2023-04-07T01:59:15;100310.59;;;9.53;75.60
32081;BME280;18593;51.426;7.030;2023-04-07T02:01:42;100309.56;;;9.54;76.07
32081;BME280;18593;51.426;7.030;2023-04-07T02:04:14;100308.75;;;9.54;75.66
32081;BME280;18593;51.426;7.030;2023-04-07T02:06:46;100305.88;;;9.55;75.63
32081;BME280;18593;51.426;7.030;2023-04-07T02:09:16;100297.88;;;9.55;75.55
32081;BME280;18593;51.426;7.030;2023-04-07T02:11:45;100303.19;;;9.55;76.24
32081;BME280;18593;51.426;7.030;2023-04-07T02:14:12;100304.03;;;9.56;76.15
32081;BME280;18593;51.426;7.030;2023-04-07T02:16:55;100308.34;;;9.57;76.44
32081;BME280;18593;51.426;7.030;2023-04-07T02:19:24;100300.34;;;9.57;75.92
32081;BME280;18593;51.426;7.030;2023-04-07T02:21:52;100305.47;;;9.59;75.78
32081;BME280;18593;51.426;7.030;2023-04-07T02:24:20;100309.75;;;9.60;75.53
32081;BME280;18593;51.426;7.030;2023-04-07T02:26:47;100307.09;;;9.60;75.89
32081;BME280;18593;51.426;7.030;2023-04-07T02:29:14;100308.72;;;9.61;75.95
32081;BME280;18593;51.426;7.030;2023-04-07T02:31:42;100302.41;;;9.62;75.99
32081;BME280;18593;51.426;7.030;2023-04-07T02:34:09;100308.53;;;9.62;75.88
32081;BME280;18593;51.426;7.030;2023-04-07T02:36:39;100315.72;;;9.62;75.86
32081;BME280;18593;51.426;7.030;2023-04-07T02:39:06;100309.13;;;9.64;76.48
32081;BME280;18593;51.426;7.030;2023-04-07T02:41:33;100300.31;;;9.64;76.82
32081;BME280;18593;51.426;7.030;2023-04-07T02:44:00;100306.47;;;9.64;77.50
32081;BME280;18593;51.426;7.030;2023-04-07T02:46:27;100304.84;;;9.63;77.43
32081;BME280;18593;51.426;7.030;2023-04-07T02:48:54;100316.31;;;9.64;76.87
32081;BME280;18593;51.426;7.030;2023-04-07T02:51:21;100317.13;;;9.64;77.10
32081;BME280;18593;51.426;7.030;2023-04-07T02:53:50;100305.44;;;9.65;77.56
32081;BME280;18593;51.426;7.030;2023-04-07T02:56:17;100318.56;;;9.67;78.00
32081;BME280;18593;51.426;7.030;2023-04-07T02:58:44;100315.91;;;9.67;78.70
32081;BME280;18593;51.426;7.030;2023-04-07T03:01:11;100314.22;;;9.66;79.43
32081;BME280;18593;51.426;7.030;2023-04-07T03:03:38;100318.75;;;9.65;79.56
32081;BME280;18593;51.426;7.030;2023-04-07T03:06:17;100315.09;;;9.66;79.90
32081;BME280;18593;51.426;7.030;2023-04-07T03:09:01;100315.50;;;9.63;80.28
32081;BME280;18593;51.426;7.030;2023-04-07T03:11:28;100313.41;;;9.65;79.85
32081;BME280;18593;51.426;7.030;2023-04-07T03:13:57;100312.41;;;9.66;79.49
32081;BME280;18593;51.426;7.030;2023-04-07T03:16:26;100314.06;;;9.67;79.71
32081;BME280;18593;51.426;7.030;2023-04-07T03:19:11;100314.66;;;9.69;80.08
32081;BME280;18593;51.426;7.030;2023-04-07T03:21:42;100319.16;;;9.69;79.31
32081;BME280;18593;51.426;7.030;2023-04-07T03:24:10;100315.47;;;9.70;79.58
32081;BME280;18593;51.426;7.030;2023-04-07T03:26:38;100318.13;;;9.70;79.30
32081;BME280;18593;51.426;7.030;2023-04-07T03:29:12;100319.75;;;9.71;79.51
32081;BME280;18593;51.426;7.030;2023-04-07T03:31:41;100319.56;;;9.72;79.67
32081;BME280;18593;51.426;7.030;2023-04-07T03:34:08;100322.22;;;9.72;80.70
32081;BME280;18593;51.426;7.030;2023-04-07T03:36:35;100322.22;;;9.72;80.87
32081;BME280;18593;51.426;7.030;2023-04-07T03:39:04;100314.25;;;9.72;80.68
32081;BME280;18593;51.426;7.030;2023-04-07T03:41:33;100320.59;;;9.71;80.72
32081;BME280;18593;51.426;7.030;2023-04-07T03:44:01;100325.91;;;9.71;80.61
32081;BME280;18593;51.426;7.030;2023-04-07T03:46:29;100327.75;;;9.71;81.31
32081;BME280;18593;51.426;7.030;2023-04-07T03:48:57;100318.94;;;9.70;80.34
32081;BME280;18593;51.426;7.030;2023-04-07T03:51:24;100323.84;;;9.73;80.32
32081;BME280;18593;51.426;7.030;2023-04-07T03:53:54;100323.84;;;9.73;80.02
32081;BME280;18593;51.426;7.030;2023-04-07T03:56:29;100322.81;;;9.74;80.97
32081;BME280;18593;51.426;7.030;2023-04-07T03:58:58;100330.22;;;9.72;80.96
32081;BME280;18593;51.426;7.030;2023-04-07T04:01:30;100331.84;;;9.73;80.41
32081;BME280;18593;51.426;7.030;2023-04-07T04:04:04;100321.19;;;9.73;80.64
32081;BME280;18593;51.426;7.030;2023-04-07T04:06:31;100331.25;;;9.71;80.95
32081;BME280;18593;51.426;7.030;2023-04-07T04:09:19;100327.75;;;9.71;81.27
32081;BME280;18593;51.426;7.030;2023-04-07T04:11:47;100329.41;;;9.72;81.59
32081;BME280;18593;51.426;7.030;2023-04-07T04:14:16;100336.56;;;9.71;81.41
32081;BME280;18593;51.426;7.030;2023-04-07T04:16:51;100335.53;;;9.72;81.30
32081;BME280;18593;51.426;7.030;2023-04-07T04:19:35;100344.34;;;9.73;81.15
32081;BME280;18593;51.426;7.030;2023-04-07T04:22:11;100346.38;;;9.71;81.28
32081;BME280;18593;51.426;7.030;2023-04-07T04:24:47;100349.88;;;9.71;80.94
32081;BME280;18593;51.426;7.030;2023-04-07T04:27:14;100344.34;;;9.73;81.04
32081;BME280;18593;51.426;7.030;2023-04-07T04:29:45;100343.53;;;9.72;80.79
32081;BME280;18593;51.426;7.030;2023-04-07T04:32:15;100353.97;;;9.74;80.57
32081;BME280;18593;51.426;7.030;2023-04-07T04:34:43;100346.78;;;9.74;80.15
32081;BME280;18593;51.426;7.030;2023-04-07T04:37:11;100350.28;;;9.75;80.24
32081;BME280;18593;51.426;7.030;2023-04-07T04:39:41;100355.41;;;9.76;80.44
32081;BME280;18593;51.426;7.030;2023-04-07T04:42:11;100350.09;;;9.76;80.69
32081;BME280;18593;51.426;7.030;2023-04-07T04:44:38;100354.78;;;9.74;80.83
32081;BME280;18593;51.426;7.030;2023-04-07T04:47:08;100361.75;;;9.75;80.35
32081;BME280;18593;51.426;7.030;2023-04-07T04:49:38;100367.69;;;9.77;80.33
32081;BME280;18593;51.426;7.030;2023-04-07T04:52:06;100365.22;;;9.76;80.64
32081;BME280;18593;51.426;7.030;2023-04-07T04:54:39;100368.72;;;9.76;80.82
32081;BME280;18593;51.426;7.030;2023-04-07T04:57:07;100362.56;;;9.76;80.67
32081;BME280;18593;51.426;7.030;2023-04-07T04:59:36;100367.88;;;9.76;80.15
32081;BME280;18593;51.426;7.030;2023-04-07T05:02:04;100368.72;;;9.76;79.69
32081;BME280;18593;51.426;7.030;2023-04-07T05:04:33;100373.84;;;9.78;79.83
32081;BME280;18593;51.426;7.030;2023-04-07T05:07:32;100385.31;;;9.78;79.46
32081;BME280;18593;51.426;7.030;2023-04-07T05:09:59;100379.97;;;9.78;79.45
32081;BME280;18593;51.426;7.030;2023-04-07T05:12:29;100387.97;;;9.78;80.15
32081;BME280;18593;51.426;7.030;2023-04-07T05:15:00;100375.47;;;9.79;80.15
32081;BME280;18593;51.426;7.030;2023-04-07T05:17:27;100386.53;;;9.76;81.03
32081;BME280;18593;51.426;7.030;2023-04-07T05:19:57;100387.38;;;9.76;81.06
32081;BME280;18593;51.426;7.030;2023-04-07T05:22:36;100388.59;;;9.74;80.51
32081;BME280;18593;51.426;7.030;2023-04-07T05:25:06;100384.06;;;9.74;80.04
32081;BME280;18593;51.426;7.030;2023-04-07T05:27:33;100390.44;;;9.73;79.90
32081;BME280;18593;51.426;7.030;2023-04-07T05:30:08;100392.28;;;9.73;80.51
32081;BME280;18593;51.426;7.030;2023-04-07T05:32:35;100394.31;;;9.71;80.65
32081;BME280;18593;51.426;7.030;2023-04-07T05:35:10;100394.53;;;9.69;80.93
32081;BME280;18593;51.426;7.030;2023-04-07T05:37:44;100390.63;;;9.65;81.03
32081;BME280;18593;51.426;7.030;2023-04-07T05:40:11;100403.94;;;9.65;81.03
32081;BME280;18593;51.426;7.030;2023-04-07T05:42:38;100402.09;;;9.66;80.75
32081;BME280;18593;51.426;7.030;2023-04-07T05:45:08;100401.50;;;9.64;81.00
32081;BME280;18593;51.426;7.030;2023-04-07T05:47:39;100409.28;;;9.65;80.44
32081;BME280;18593;51.426;7.030;2023-04-07T05:50:10;100406.44;;;9.67;80.10
32081;BME280;18593;51.426;7.030;2023-04-07T05:52:41;100408.88;;;9.68;80.09
32081;BME280;18593;51.426;7.030;2023-04-07T05:55:18;100414.19;;;9.68;80.08
32081;BME280;18593;51.426;7.030;2023-04-07T05:57:46;100417.91;;;9.67;79.80
32081;BME280;18593;51.426;7.030;2023-04-07T06:00:16;100419.53;;;9.68;79.89
32081;BME280;18593;51.426;7.030;2023-04-07T06:02:50;100428.13;;;9.70;79.84
32081;BME280;18593;51.426;7.030;2023-04-07T06:05:20;100426.50;;;9.69;79.71
32081;BME280;18593;51.426;7.030;2023-04-07T06:07:51;100428.13;;;9.70;79.47
32081;BME280;18593;51.426;7.030;2023-04-07T06:10:19;100433.44;;;9.70;79.43
32081;BME280;18593;51.426;7.030;2023-04-07T06:12:46;100429.78;;;9.71;79.21
32081;BME280;18593;51.426;7.030;2023-04-07T06:15:13;100428.75;;;9.72;79.11
32081;BME280;18593;51.426;7.030;2023-04-07T06:17:40;100427.72;;;9.73;79.16
32081;BME280;18593;51.426;7.030;2023-04-07T06:20:09;100431.41;;;9.72;79.46
32081;BME280;18593;51.426;7.030;2023-04-07T06:22:37;100439.41;;;9.72;79.29
32081;BME280;18593;51.426;7.030;2023-04-07T06:25:07;100441.03;;;9.73;79.53
32081;BME280;18593;51.426;7.030;2023-04-07T06:27:34;100439.19;;;9.74;79.59
32081;BME280;18593;51.426;7.030;2023-04-07T06:30:01;100443.47;;;9.75;79.35
32081;BME280;18593;51.426;7.030;2023-04-07T06:32:28;100437.97;;;9.76;79.42
32081;BME280;18593;51.426;7.030;2023-04-07T06:34:56;100446.78;;;9.77;79.68
32081;BME280;18593;51.426;7.030;2023-04-07T06:37:23;100448.81;;;9.75;80.15
32081;BME280;18593;51.426;7.030;2023-04-07T06:39:52;100442.44;;;9.76;80.06
32081;BME280;18593;51.426;7.030;2023-04-07T06:42:19;100452.09;;;9.77;80.67
32081;BME280;18593;51.426;7.030;2023-04-07T06:44:58;100451.47;;;9.75;80.34
32081;BME280;18593;51.426;7.030;2023-04-07T06:47:25;100456.63;;;9.76;80.64
32081;BME280;18593;51.426;7.030;2023-04-07T06:49:52;100452.28;;;9.75;80.37
32081;BME280;18593;51.426;7.030;2023-04-07T06:52:19;100450.44;;;9.76;79.95
32081;BME280;18593;51.426;7.030;2023-04-07T06:54:46;100452.91;;;9.77;80.00
32081;BME280;18593;51.426;7.030;2023-04-07T06:57:15;100459.66;;;9.80;80.16
32081;BME280;18593;51.426;7.030;2023-04-07T06:59:42;100464.97;;;9.80;80.47
32081;BME280;18593;51.426;7.030;2023-04-07T07:02:09;100458.84;;;9.79;80.23
32081;BME280;18593;51.426;7.030;2023-04-07T07:04:36;100458.84;;;9.79;80.16
32081;BME280;18593;51.426;7.030;2023-04-07T07:07:03;100466.63;;;9.74;80.63
32081;BME280;18593;51.426;7.030;2023-04-07T07:09:30;100469.50;;;9.73;80.91
32081;BME280;18593;51.426;7.030;2023-04-07T07:11:57;100474.03;;;9.72;80.63
32081;BME280;18593;51.426;7.030;2023-04-07T07:14:28;100465.81;;;9.74;79.96
32081;BME280;18593;51.426;7.030;2023-04-07T07:16:55;100477.28;;;9.74;80.17
32081;BME280;18593;51.426;7.030;2023-04-07T07:19:22;100483.44;;;9.75;80.39
32081;BME280;18593;51.426;7.030;2023-04-07T07:21:49;100482.63;;;9.74;80.60
32081;BME280;18593;51.426;7.030;2023-04-07T07:24:16;100480.75;;;9.75;80.36
32081;BME280;18593;51.426;7.030;2023-04-07T07:26:43;100485.91;;;9.76;80.43
32081;BME280;18593;51.426;7.030;2023-04-07T07:29:10;100489.16;;;9.78;80.64
32081;BME280;18593;51.426;7.030;2023-04-07T07:31:39;100488.34;;;9.78;80.88
32081;BME280;18593;51.426;7.030;2023-04-07T07:34:06;100488.75;;;9.75;80.67
32081;BME280;18593;51.426;7.030;2023-04-07T07:36:33;100496.56;;;9.76;80.66
32081;BME280;18593;51.426;7.030;2023-04-07T07:39:00;100493.91;;;9.76;81.04
32081;BME280;18593;51.426;7.030;2023-04-07T07:41:27;100497.38;;;9.77;80.86
32081;BME280;18593;51.426;7.030;2023-04-07T07:43:54;100498.19;;;9.77;80.90
32081;BME280;18593;51.426;7.030;2023-04-07T07:46:21;100496.13;;;9.79;80.96
32081;BME280;18593;51.426;7.030;2023-04-07T07:48:50;100503.94;;;9.81;80.64
32081;BME280;18593;51.426;7.030;2023-04-07T07:51:17;100498.41;;;9.83;80.28
32081;BME280;18593;51.426;7.030;2023-04-07T07:53:44;100505.13;;;9.85;80.13
32081;BME280;18593;51.426;7.030;2023-04-07T07:56:11;100503.94;;;9.88;80.48
32081;BME280;18593;51.426;7.030;2023-04-07T07:58:38;100500.44;;;9.87;81.01
32081;BME280;18593;51.426;7.030;2023-04-07T08:01:06;100509.25;;;9.88;81.23
32081;BME280;18593;51.426;7.030;2023-04-07T08:03:33;100510.66;;;9.90;81.38
32081;BME280;18593;51.426;7.030;2023-04-07T08:06:01;100508.84;;;9.91;81.61
32081;BME280;18593;51.426;7.030;2023-04-07T08:08:28;100521.97;;;9.92;81.10
32081;BME280;18593;51.426;7.030;2023-04-07T08:10:56;100517.66;;;9.91;81.00
32081;BME280;18593;51.426;7.030;2023-04-07T08:13:22;100527.28;;;9.92;81.27
32081;BME280;18593;51.426;7.030;2023-04-07T08:15:49;100527.28;;;9.92;81.32
32081;BME280;18593;51.426;7.030;2023-04-07T08:18:17;100527.28;;;9.92;81.16
32081;BME280;18593;51.426;7.030;2023-04-07T08:20:44;100532.41;;;9.94;81.29
32081;BME280;18593;51.426;7.030;2023-04-07T08:23:12;100535.06;;;9.94;81.13
32081;BME280;18593;51.426;7.030;2023-04-07T08:25:39;100533.03;;;9.96;81.40
32081;BME280;18593;51.426;7.030;2023-04-07T08:28:06;100539.56;;;9.93;82.16
32081;BME280;18593;51.426;7.030;2023-04-07T08:30:33;100533.44;;;9.93;82.59
32081;BME280;18593;51.426;7.030;2023-04-07T08:33:00;100538.97;;;9.91;82.85
32081;BME280;18593;51.426;7.030;2023-04-07T08:35:27;100544.91;;;9.93;82.32
32081;BME280;18593;51.426;7.030;2023-04-07T08:37:54;100542.84;;;9.95;82.61
32081;BME280;18593;51.426;7.030;2023-04-07T08:40:23;100542.84;;;9.95;82.25
32081;BME280;18593;51.426;7.030;2023-04-07T08:42:50;100541.03;;;9.96;82.11
32081;BME280;18593;51.426;7.030;2023-04-07T08:45:17;100544.69;;;9.95;81.87
32081;BME280;18593;51.426;7.030;2023-04-07T08:47:45;100550.84;;;9.95;81.55
32081;BME280;18593;51.426;7.030;2023-04-07T08:50:13;100549.41;;;9.99;82.15
32081;BME280;18593;51.426;7.030;2023-04-07T08:52:44;100553.91;;;9.99;82.19
32081;BME280;18593;51.426;7.030;2023-04-07T08:55:12;100549.22;;;10.01;82.53
32081;BME280;18593;51.426;7.030;2023-04-07T08:57:40;100551.88;;;10.01;82.61
32081;BME280;18593;51.426;7.030;2023-04-07T09:00:09;100560.47;;;10.03;81.98
32081;BME280;18593;51.426;7.030;2023-04-07T09:02:37;100562.13;;;10.04;82.54
32081;BME280;18593;51.426;7.030;2023-04-07T09:05:06;100570.91;;;10.04;82.30
32081;BME280;18593;51.426;7.030;2023-04-07T09:07:34;100562.75;;;10.06;82.03
32081;BME280;18593;51.426;7.030;2023-04-07T09:10:01;100569.72;;;10.07;81.64
32081;BME280;18593;51.426;7.030;2023-04-07T09:12:30;100567.03;;;10.07;81.32
32081;BME280;18593;51.426;7.030;2023-04-07T09:14:58;100563.34;;;10.08;80.89
32081;BME280;18593;51.426;7.030;2023-04-07T09:17:26;100566.63;;;10.10;80.46
32081;BME280;18593;51.426;7.030;2023-04-07T09:19:55;100572.56;;;10.12;80.35
32081;BME280;18593;51.426;7.030;2023-04-07T09:22:36;100578.50;;;10.14;80.05
32081;BME280;18593;51.426;7.030;2023-04-07T09:25:12;100579.13;;;10.16;80.18
32081;BME280;18593;51.426;7.030;2023-04-07T09:27:39;100566.22;;;10.13;81.18
32081;BME280;18593;51.426;7.030;2023-04-07T09:30:12;100576.88;;;10.13;81.16
32081;BME280;18593;51.426;7.030;2023-04-07T09:32:40;100576.47;;;10.10;81.66
32081;BME280;18593;51.426;7.030;2023-04-07T09:35:07;100579.94;;;10.10;81.97
32081;BME280;18593;51.426;7.030;2023-04-07T09:37:35;100574.41;;;10.05;82.22
32081;BME280;18593;51.426;7.030;2023-04-07T09:40:02;100578.31;;;10.02;82.58
32081;BME280;18593;51.426;7.030;2023-04-07T09:42:29;100577.50;;;10.02;82.56
32081;BME280;18593;51.426;7.030;2023-04-07T09:45:00;100578.31;;;10.02;82.71
32081;BME280;18593;51.426;7.030;2023-04-07T09:47:30;100578.91;;;10.04;82.32
32081;BME280;18593;51.426;7.030;2023-04-07T09:49:57;100571.56;;;10.06;82.14
32081;BME280;18593;51.426;7.030;2023-04-07T09:52:49;100583.03;;;10.07;82.07
32081;BME280;18593;51.426;7.030;2023-04-07T09:55:19;100589.19;;;10.07;81.95
32081;BME280;18593;51.426;7.030;2023-04-07T09:57:46;100585.69;;;10.07;81.54
32081;BME280;18593;51.426;7.030;2023-04-07T10:00:14;100580.97;;;10.09;81.56
32081;BME280;18593;51.426;7.030;2023-04-07T10:02:43;100586.13;;;10.11;82.23
32081;BME280;18593;51.426;7.030;2023-04-07T10:05:10;100586.28;;;10.09;82.00
32081;BME280;18593;51.426;7.030;2023-04-07T10:07:37;100593.06;;;10.12;82.48
32081;BME280;18593;51.426;7.030;2023-04-07T10:10:06;100595.53;;;10.13;83.04
32081;BME280;18593;51.426;7.030;2023-04-07T10:12:33;100584.88;;;10.13;83.19
32081;BME280;18593;51.426;7.030;2023-04-07T10:15:01;100595.31;;;10.15;82.72
32081;BME280;18593;51.426;7.030;2023-04-07T10:17:28;100594.91;;;10.18;82.28
32081;BME280;18593;51.426;7.030;2023-04-07T10:19:57;100594.50;;;10.21;82.17
32081;BME280;18593;51.426;7.030;2023-04-07T10:22:25;100594.31;;;10.22;82.10
32081;BME280;18593;51.426;7.030;2023-04-07T10:24:55;100605.78;;;10.23;82.70
32081;BME280;18593;51.426;7.030;2023-04-07T10:27:28;100608.03;;;10.19;83.07
32081;BME280;18593;51.426;7.030;2023-04-07T10:29:57;100606.81;;;10.15;83.20
32081;BME280;18593;51.426;7.030;2023-04-07T10:32:24;100609.50;;;10.15;83.32
32081;BME280;18593;51.426;7.030;2023-04-07T10:34:55;100605.38;;;10.13;83.10
32081;BME280;18593;51.426;7.030;2023-04-07T10:37:26;100614.19;;;10.13;83.26
32081;BME280;18593;51.426;7.030;2023-04-07T10:40:27;100610.50;;;10.14;83.46
32081;BME280;18593;51.426;7.030;2023-04-07T10:42:54;100615.22;;;10.12;83.93
32081;BME280;18593;51.426;7.030;2023-04-07T10:45:50;100616.63;;;10.08;84.40
32081;BME280;18593;51.426;7.030;2023-04-07T10:48:18;100617.66;;;10.07;84.08
32081;BME280;18593;51.426;7.030;2023-04-07T10:51:16;100619.09;;;10.10;83.45
32081;BME280;18593;51.426;7.030;2023-04-07T10:54:18;100619.50;;;10.13;83.66
32081;BME280;18593;51.426;7.030;2023-04-07T10:57:06;100628.97;;;10.16;83.89
32081;BME280;18593;51.426;7.030;2023-04-07T10:59:35;100619.94;;;10.17;83.52
32081;BME280;18593;51.426;7.030;2023-04-07T11:02:34;100625.47;;;10.15;83.04
32081;BME280;18593;51.426;7.030;2023-04-07T11:05:01;100621.56;;;10.18;82.96
32081;BME280;18593;51.426;7.030;2023-04-07T11:07:51;100626.50;;;10.21;83.34
32081;BME280;18593;51.426;7.030;2023-04-07T11:10:21;100626.69;;;10.19;83.76
32081;BME280;18593;51.426;7.030;2023-04-07T11:13:07;100624.84;;;10.20;83.84
32081;BME280;18593;51.426;7.030;2023-04-07T11:15:35;100628.34;;;10.20;83.35
32081;BME280;18593;51.426;7.030;2023-04-07T11:18:10;100623.63;;;10.22;83.51
32081;BME280;18593;51.426;7.030;2023-04-07T11:20:42;100631.44;;;10.24;83.45
32081;BME280;18593;51.426;7.030;2023-04-07T11:23:09;100633.91;;;10.25;83.16
32081;BME280;18593;51.426;7.030;2023-04-07T11:25:38;100634.91;;;10.24;83.59
32081;BME280;18593;51.426;7.030;2023-04-07T11:28:08;100637.41;;;10.26;83.35
32081;BME280;18593;51.426;7.030;2023-04-07T11:30:36;100629.19;;;10.27;83.44
32081;BME280;18593;51.426;7.030;2023-04-07T11:33:03;100636.16;;;10.28;82.75
32081;BME280;18593;51.426;7.030;2023-04-07T11:35:30;100639.03;;;10.27;82.92
32081;BME280;18593;51.426;7.030;2023-04-07T11:37:58;100641.69;;;10.27;82.77
32081;BME280;18593;51.426;7.030;2023-04-07T11:40:33;100641.69;;;10.27;83.21
32081;BME280;18593;51.426;7.030;2023-04-07T11:43:14;100646.22;;;10.26;82.83
32081;BME280;18593;51.426;7.030;2023-04-07T11:45:41;100652.16;;;10.28;82.49
32081;BME280;18593;51.426;7.030;2023-04-07T11:48:26;100656.44;;;10.29;82.25
32081;BME280;18593;51.426;7.030;2023-04-07T11:50:53;100652.78;;;10.30;82.49
32081;BME280;18593;51.426;7.030;2023-04-07T11:53:27;100656.03;;;10.32;82.72
32081;BME280;18593;51.426;7.030;2023-04-07T11:56:01;100649.50;;;10.35;83.13
32081;BME280;18593;51.426;7.030;2023-04-07T11:58:31;100662.63;;;10.37;83.21
32081;BME280;18593;51.426;7.030;2023-04-07T12:00:59;100660.56;;;10.39;83.11
32081;BME280;18593;51.426;7.030;2023-04-07T12:03:29;100663.03;;;10.40;82.51
32081;BME280;18593;51.426;7.030;2023-04-07T12:05:57;100661.78;;;10.43;82.45
32081;BME280;18593;51.426;7.030;2023-04-07T12:08:36;100662.81;;;10.42;82.75
32081;BME280;18593;51.426;7.030;2023-04-07T12:11:04;100667.13;;;10.43;83.30
32081;BME280;18593;51.426;7.030;2023-04-07T12:13:33;100670.41;;;10.45;83.13
32081;BME280;18593;51.426;7.030;2023-04-07T12:16:01;100670.81;;;10.48;83.14
32081;BME280;18593;51.426;7.030;2023-04-07T12:18:28;100668.13;;;10.48;83.86
32081;BME280;18593;51.426;7.030;2023-04-07T12:20:55;100674.28;;;10.49;83.65
32081;BME280;18593;51.426;7.030;2023-04-07T12:23:23;100674.94;;;10.51;83.40
32081;BME280;18593;51.426;7.030;2023-04-07T12:25:51;100677.38;;;10.52;83.53
32081;BME280;18593;51.426;7.030;2023-04-07T12:28:18;100677.59;;;10.51;83.20
32081;BME280;18593;51.426;7.030;2023-04-07T12:30:46;100675.75;;;10.51;82.76
32081;BME280;18593;51.426;7.030;2023-04-07T12:33:13;100681.69;;;10.53;82.25
32081;BME280;18593;51.426;7.030;2023-04-07T12:35:41;100688.69;;;10.54;82.33
32081;BME280;18593;51.426;7.030;2023-04-07T12:38:08;100680.47;;;10.56;81.92
32081;BME280;18593;51.426;7.030;2023-04-07T12:40:35;100677.78;;;10.56;81.92
32081;BME280;18593;51.426;7.030;2023-04-07T12:43:03;100683.72;;;10.58;81.79
32081;BME280;18593;51.426;7.030;2023-04-07T12:45:30;100679.84;;;10.61;81.59
32081;BME280;18593;51.426;7.030;2023-04-07T12:47:58;100688.66;;;10.61;81.14
32081;BME280;18593;51.426;7.030;2023-04-07T12:50:25;100694.41;;;10.65;82.13
32081;BME280;18593;51.426;7.030;2023-04-07T12:52:53;100689.91;;;10.65;81.79
32081;BME280;18593;51.426;7.030;2023-04-07T12:55:21;100690.72;;;10.66;81.46
32081;BME280;18593;51.426;7.030;2023-04-07T12:57:48;100693.38;;;10.66;81.85
32081;BME280;18593;51.426;7.030;2023-04-07T13:00:15;100696.25;;;10.64;82.19
32081;BME280;18593;51.426;7.030;2023-04-07T13:02:42;100705.91;;;10.65;81.66
32081;BME280;18593;51.426;7.030;2023-04-07T13:05:10;100707.53;;;10.66;81.26
32081;BME280;18593;51.426;7.030;2023-04-07T13:07:37;100702.81;;;10.68;81.07
32081;BME280;18593;51.426;7.030;2023-04-07T13:10:06;100706.09;;;10.70;81.51
32081;BME280;18593;51.426;7.030;2023-04-07T13:12:34;100711.44;;;10.70;81.62